sensor_id;sensor_type;location;lat;lon;timestamp;P1;durP1;ratioP1;P2;durP2;ratioP2
10880;SDS011;5493;48.884;8.338;2023-03-01T00:02:13;10.67;;;6.13;;
10880;SDS011;5493;48.884;8.338;2023-03-01T00:04:40;9.80;;;6.33;;
10880;SDS011;5493;48.884;8.338;2023-03-01T00:07:06;8.27;;;5.97;;
10880;SDS011;5493;48.884;8.338;2023-03-01T00:09:35;13.27;;;6.47;;
10880;SDS011;5493;48.884;8.338;2023-03-01T00:12:02;9.63;;;6.13;;
10880;SDS011;5493;48.884;8.338;2023-03-01T00:14:29;10.40;;;5.83;;
10880;SDS011;5493;48.884;8.338;2023-03-01T00:16:55;8.50;;;5.83;;
10880;SDS011;5493;48.884;8.338;2023-03-01T00:19:22;9.23;;;6.07;;
10880;SDS011;5493;48.884;8.338;2023-03-01T00:21:48;9.33;;;6.13;;
10880;SDS011;5493;48.884;8.338;2023-03-01T00:24:15;10.60;;;5.87;;
10880;SDS011;5493;48.884;8.338;2023-03-01T00:26:43;12.73;;;6.87;;
10880;SDS011;5493;48.884;8.338;2023-03-01T00:29:09;11.17;;;5.80;;
10880;SDS011;5493;48.884;8.338;2023-03-01T00:31:36;8.33;;;5.87;;
10880;SDS011;5493;48.884;8.338;2023-03-01T00:34:03;8.73;;;5.47;;
10880;SDS011;5493;48.884;8.338;2023-03-01T00:36:32;10.23;;;5.87;;
10880;SDS011;5493;48.884;8.338;2023-03-01T00:39:00;11.10;;;6.23;;
10880;SDS011;5493;48.884;8.338;2023-03-01T00:41:27;9.97;;;5.87;;
10880;SDS011;5493;48.884;8.338;2023-03-01T00:43:55;9.07;;;5.60;;
10880;SDS011;5493;48.884;8.338;2023-03-01T00:46:22;11.77;;;6.30;;
10880;SDS011;5493;48.884;8.338;2023-03-01T00:48:51;10.30;;;6.33;;
10880;SDS011;5493;48.884;8.338;2023-03-01T00:51:19;12.97;;;6.97;;
10880;SDS011;5493;48.884;8.338;2023-03-01T00:53:47;12.13;;;6.60;;
10880;SDS011;5493;48.884;8.338;2023-03-01T00:56:16;11.03;;;5.93;;
10880;SDS011;5493;48.884;8.338;2023-03-01T00:58:43;13.90;;;6.87;;
10880;SDS011;5493;48.884;8.338;2023-03-01T01:01:12;8.60;;;5.37;;
10880;SDS011;5493;48.884;8.338;2023-03-01T01:03:43;9.70;;;5.60;;
10880;SDS011;5493;48.884;8.338;2023-03-01T01:06:15;9.40;;;5.70;;
10880;SDS011;5493;48.884;8.338;2023-03-01T01:08:43;10.53;;;6.13;;
10880;SDS011;5493;48.884;8.338;2023-03-01T01:11:10;9.27;;;6.37;;
10880;SDS011;5493;48.884;8.338;2023-03-01T01:13:37;10.50;;;6.37;;
10880;SDS011;5493;48.884;8.338;2023-03-01T01:16:05;9.37;;;5.70;;
10880;SDS011;5493;48.884;8.338;2023-03-01T01:18:34;10.97;;;5.43;;
10880;SDS011;5493;48.884;8.338;2023-03-01T01:21:04;11.40;;;5.97;;
10880;SDS011;5493;48.884;8.338;2023-03-01T01:23:31;9.20;;;5.87;;
10880;SDS011;5493;48.884;8.338;2023-03-01T01:26:02;9.90;;;6.67;;
10880;SDS011;5493;48.884;8.338;2023-03-01T01:28:30;8.57;;;5.33;;
10880;SDS011;5493;48.884;8.338;2023-03-01T01:30:56;12.03;;;6.23;;
10880;SDS011;5493;48.884;8.338;2023-03-01T01:33:23;9.60;;;5.27;;
10880;SDS011;5493;48.884;8.338;2023-03-01T01:35:50;12.77;;;6.63;;
10880;SDS011;5493;48.884;8.338;2023-03-01T01:38:17;10.87;;;5.80;;
10880;SDS011;5493;48.884;8.338;2023-03-01T01:40:43;11.73;;;5.83;;
10880;SDS011;5493;48.884;8.338;2023-03-01T01:43:13;7.77;;;5.40;;
10880;SDS011;5493;48.884;8.338;2023-03-01T01:45:45;9.33;;;5.97;;
10880;SDS011;5493;48.884;8.338;2023-03-01T01:48:12;9.30;;;5.47;;
10880;SDS011;5493;48.884;8.338;2023-03-01T01:50:42;10.30;;;5.93;;
10880;SDS011;5493;48.884;8.338;2023-03-01T01:53:11;12.07;;;5.87;;
10880;SDS011;5493;48.884;8.338;2023-03-01T01:55:42;10.07;;;5.20;;
10880;SDS011;5493;48.884;8.338;2023-03-01T01:58:14;9.50;;;4.90;;
10880;SDS011;5493;48.884;8.338;2023-03-01T02:00:43;10.30;;;6.07;;
10880;SDS011;5493;48.884;8.338;2023-03-01T02:03:11;10.57;;;5.30;;
10880;SDS011;5493;48.884;8.338;2023-03-01T02:05:43;12.73;;;5.87;;
10880;SDS011;5493;48.884;8.338;2023-03-01T02:08:19;8.93;;;5.40;;
10880;SDS011;5493;48.884;8.338;2023-03-01T02:10:47;12.17;;;6.97;;
10880;SDS011;5493;48.884;8.338;2023-03-01T02:13:15;10.80;;;6.10;;
10880;SDS011;5493;48.884;8.338;2023-03-01T02:15:42;11.13;;;6.47;;
10880;SDS011;5493;48.884;8.338;2023-03-01T02:18:10;11.00;;;6.40;;
10880;SDS011;5493;48.884;8.338;2023-03-01T02:20:42;8.90;;;5.30;;
10880;SDS011;5493;48.884;8.338;2023-03-01T02:23:15;9.60;;;5.97;;
10880;SDS011;5493;48.884;8.338;2023-03-01T02:25:44;8.07;;;5.63;;
10880;SDS011;5493;48.884;8.338;2023-03-01T02:28:29;9.23;;;5.27;;
10880;SDS011;5493;48.884;8.338;2023-03-01T02:30:57;11.57;;;5.87;;
10880;SDS011;5493;48.884;8.338;2023-03-01T02:33:41;9.80;;;5.47;;
10880;SDS011;5493;48.884;8.338;2023-03-01T02:36:10;11.53;;;6.23;;
10880;SDS011;5493;48.884;8.338;2023-03-01T02:38:40;8.73;;;5.27;;
10880;SDS011;5493;48.884;8.338;2023-03-01T02:41:08;9.77;;;6.00;;
10880;SDS011;5493;48.884;8.338;2023-03-01T02:43:37;9.03;;;5.33;;
10880;SDS011;5493;48.884;8.338;2023-03-01T02:46:05;9.40;;;5.47;;
10880;SDS011;5493;48.884;8.338;2023-03-01T02:48:40;9.57;;;5.23;;
10880;SDS011;5493;48.884;8.338;2023-03-01T02:51:10;12.20;;;5.73;;
10880;SDS011;5493;48.884;8.338;2023-03-01T02:53:46;9.00;;;5.17;;
10880;SDS011;5493;48.884;8.338;2023-03-01T02:56:21;9.30;;;5.37;;
10880;SDS011;5493;48.884;8.338;2023-03-01T02:58:49;11.47;;;6.00;;
10880;SDS011;5493;48.884;8.338;2023-03-01T03:01:16;8.27;;;5.60;;
10880;SDS011;5493;48.884;8.338;2023-03-01T03:03:43;9.20;;;5.87;;
10880;SDS011;5493;48.884;8.338;2023-03-01T03:06:10;8.80;;;5.80;;
10880;SDS011;5493;48.884;8.338;2023-03-01T03:08:36;7.43;;;4.77;;
10880;SDS011;5493;48.884;8.338;2023-03-01T03:11:03;8.97;;;5.40;;
10880;SDS011;5493;48.884;8.338;2023-03-01T03:13:30;12.20;;;5.93;;
10880;SDS011;5493;48.884;8.338;2023-03-01T03:15:58;9.20;;;5.43;;
10880;SDS011;5493;48.884;8.338;2023-03-01T03:18:25;9.87;;;5.67;;
10880;SDS011;5493;48.884;8.338;2023-03-01T03:20:51;9.17;;;5.47;;
10880;SDS011;5493;48.884;8.338;2023-03-01T03:23:19;8.83;;;5.03;;
10880;SDS011;5493;48.884;8.338;2023-03-01T03:25:47;11.80;;;5.37;;
10880;SDS011;5493;48.884;8.338;2023-03-01T03:28:15;9.43;;;5.30;;
10880;SDS011;5493;48.884;8.338;2023-03-01T03:30:42;9.00;;;5.67;;
10880;SDS011;5493;48.884;8.338;2023-03-01T03:33:11;8.53;;;5.30;;
10880;SDS011;5493;48.884;8.338;2023-03-01T03:35:39;10.77;;;5.70;;
10880;SDS011;5493;48.884;8.338;2023-03-01T03:38:09;9.03;;;5.43;;
10880;SDS011;5493;48.884;8.338;2023-03-01T03:40:42;8.50;;;5.53;;
10880;SDS011;5493;48.884;8.338;2023-03-01T03:43:10;10.23;;;5.50;;
10880;SDS011;5493;48.884;8.338;2023-03-01T03:45:38;10.63;;;5.73;;
10880;SDS011;5493;48.884;8.338;2023-03-01T03:48:05;11.07;;;5.90;;
10880;SDS011;5493;48.884;8.338;2023-03-01T03:50:34;11.00;;;5.93;;
10880;SDS011;5493;48.884;8.338;2023-03-01T03:53:01;8.63;;;5.53;;
10880;SDS011;5493;48.884;8.338;2023-03-01T03:55:30;9.23;;;5.33;;
10880;SDS011;5493;48.884;8.338;2023-03-01T03:57:58;11.10;;;6.20;;
10880;SDS011;5493;48.884;8.338;2023-03-01T04:00:27;9.63;;;6.33;;
10880;SDS011;5493;48.884;8.338;2023-03-01T04:02:54;14.30;;;7.17;;
10880;SDS011;5493;48.884;8.338;2023-03-01T04:05:21;9.77;;;5.03;;
10880;SDS011;5493;48.884;8.338;2023-03-01T04:07:49;9.57;;;5.77;;
10880;SDS011;5493;48.884;8.338;2023-03-01T04:10:26;10.47;;;6.30;;
10880;SDS011;5493;48.884;8.338;2023-03-01T04:12:54;13.07;;;7.17;;
10880;SDS011;5493;48.884;8.338;2023-03-01T04:15:22;12.67;;;6.63;;
10880;SDS011;5493;48.884;8.338;2023-03-01T04:17:49;8.30;;;5.67;;
10880;SDS011;5493;48.884;8.338;2023-03-01T04:20:18;10.47;;;6.70;;
10880;SDS011;5493;48.884;8.338;2023-03-01T04:22:51;9.63;;;6.20;;
10880;SDS011;5493;48.884;8.338;2023-03-01T04:25:22;11.30;;;5.60;;
10880;SDS011;5493;48.884;8.338;2023-03-01T04:27:49;13.30;;;6.27;;
10880;SDS011;5493;48.884;8.338;2023-03-01T04:30:15;10.87;;;6.53;;
10880;SDS011;5493;48.884;8.338;2023-03-01T04:32:42;13.33;;;7.37;;
10880;SDS011;5493;48.884;8.338;2023-03-01T04:35:09;13.63;;;7.00;;
10880;SDS011;5493;48.884;8.338;2023-03-01T04:37:35;11.93;;;7.20;;
10880;SDS011;5493;48.884;8.338;2023-03-01T04:40:04;14.33;;;7.93;;
10880;SDS011;5493;48.884;8.338;2023-03-01T04:42:40;10.27;;;5.77;;
10880;SDS011;5493;48.884;8.338;2023-03-01T04:45:07;11.17;;;6.70;;
10880;SDS011;5493;48.884;8.338;2023-03-01T04:47:38;9.73;;;5.93;;
10880;SDS011;5493;48.884;8.338;2023-03-01T04:50:05;11.27;;;6.07;;
10880;SDS011;5493;48.884;8.338;2023-03-01T04:52:33;10.43;;;5.63;;
10880;SDS011;5493;48.884;8.338;2023-03-01T04:55:00;11.37;;;6.03;;
10880;SDS011;5493;48.884;8.338;2023-03-01T04:57:28;10.83;;;6.17;;
10880;SDS011;5493;48.884;8.338;2023-03-01T04:59:54;8.57;;;5.70;;
10880;SDS011;5493;48.884;8.338;2023-03-01T05:02:21;11.33;;;6.47;;
10880;SDS011;5493;48.884;8.338;2023-03-01T05:04:47;9.23;;;5.87;;
10880;SDS011;5493;48.884;8.338;2023-03-01T05:07:14;10.33;;;5.70;;
10880;SDS011;5493;48.884;8.338;2023-03-01T05:09:44;11.40;;;6.37;;
10880;SDS011;5493;48.884;8.338;2023-03-01T05:12:12;9.80;;;6.27;;
10880;SDS011;5493;48.884;8.338;2023-03-01T05:14:39;11.87;;;7.40;;
10880;SDS011;5493;48.884;8.338;2023-03-01T05:17:06;12.27;;;7.77;;
10880;SDS011;5493;48.884;8.338;2023-03-01T05:19:33;12.87;;;7.10;;
10880;SDS011;5493;48.884;8.338;2023-03-01T05:22:00;13.30;;;7.33;;
10880;SDS011;5493;48.884;8.338;2023-03-01T05:24:30;11.33;;;6.77;;
10880;SDS011;5493;48.884;8.338;2023-03-01T05:26:58;10.13;;;6.40;;
10880;SDS011;5493;48.884;8.338;2023-03-01T05:29:27;11.30;;;6.73;;
10880;SDS011;5493;48.884;8.338;2023-03-01T05:31:56;13.27;;;7.27;;
10880;SDS011;5493;48.884;8.338;2023-03-01T05:34:26;11.93;;;6.40;;
10880;SDS011;5493;48.884;8.338;2023-03-01T05:36:53;12.37;;;6.57;;
10880;SDS011;5493;48.884;8.338;2023-03-01T05:39:20;12.13;;;6.77;;
10880;SDS011;5493;48.884;8.338;2023-03-01T05:41:48;12.33;;;6.50;;
10880;SDS011;5493;48.884;8.338;2023-03-01T05:44:14;10.57;;;6.33;;
10880;SDS011;5493;48.884;8.338;2023-03-01T05:46:41;11.23;;;6.73;;
10880;SDS011;5493;48.884;8.338;2023-03-01T05:49:09;11.63;;;6.97;;
10880;SDS011;5493;48.884;8.338;2023-03-01T05:51:35;12.13;;;6.80;;
10880;SDS011;5493;48.884;8.338;2023-03-01T05:54:02;10.40;;;5.70;;
10880;SDS011;5493;48.884;8.338;2023-03-01T05:56:31;10.17;;;6.43;;
10880;SDS011;5493;48.884;8.338;2023-03-01T05:58:58;12.83;;;7.10;;
10880;SDS011;5493;48.884;8.338;2023-03-01T06:01:25;14.47;;;7.33;;
10880;SDS011;5493;48.884;8.338;2023-03-01T06:03:51;12.40;;;6.93;;
10880;SDS011;5493;48.884;8.338;2023-03-01T06:06:19;11.80;;;6.37;;
10880;SDS011;5493;48.884;8.338;2023-03-01T06:08:46;12.70;;;6.13;;
10880;SDS011;5493;48.884;8.338;2023-03-01T06:11:12;11.57;;;7.13;;
10880;SDS011;5493;48.884;8.338;2023-03-01T06:13:38;15.67;;;7.20;;
10880;SDS011;5493;48.884;8.338;2023-03-01T06:16:07;12.10;;;6.73;;
10880;SDS011;5493;48.884;8.338;2023-03-01T06:18:34;12.10;;;6.53;;
10880;SDS011;5493;48.884;8.338;2023-03-01T06:21:01;13.47;;;6.63;;
10880;SDS011;5493;48.884;8.338;2023-03-01T06:23:29;12.77;;;7.53;;
10880;SDS011;5493;48.884;8.338;2023-03-01T06:25:56;11.83;;;6.80;;
10880;SDS011;5493;48.884;8.338;2023-03-01T06:28:22;9.50;;;6.27;;
10880;SDS011;5493;48.884;8.338;2023-03-01T06:30:49;10.23;;;6.63;;
10880;SDS011;5493;48.884;8.338;2023-03-01T06:33:16;13.97;;;7.53;;
10880;SDS011;5493;48.884;8.338;2023-03-01T06:35:45;14.80;;;7.60;;
10880;SDS011;5493;48.884;8.338;2023-03-01T06:38:11;13.93;;;8.37;;
10880;SDS011;5493;48.884;8.338;2023-03-01T06:40:41;13.90;;;7.83;;
10880;SDS011;5493;48.884;8.338;2023-03-01T06:43:07;12.63;;;7.37;;
10880;SDS011;5493;48.884;8.338;2023-03-01T06:45:34;14.03;;;7.67;;
10880;SDS011;5493;48.884;8.338;2023-03-01T06:48:03;11.77;;;6.97;;
10880;SDS011;5493;48.884;8.338;2023-03-01T06:50:30;12.83;;;7.30;;
10880;SDS011;5493;48.884;8.338;2023-03-01T06:52:57;11.37;;;6.97;;
10880;SDS011;5493;48.884;8.338;2023-03-01T06:55:24;10.50;;;6.40;;
10880;SDS011;5493;48.884;8.338;2023-03-01T06:57:54;12.07;;;6.83;;
10880;SDS011;5493;48.884;8.338;2023-03-01T07:00:22;12.10;;;6.47;;
10880;SDS011;5493;48.884;8.338;2023-03-01T07:02:49;11.77;;;7.33;;
10880;SDS011;5493;48.884;8.338;2023-03-01T07:05:16;10.70;;;6.13;;
10880;SDS011;5493;48.884;8.338;2023-03-01T07:07:42;9.87;;;6.17;;
10880;SDS011;5493;48.884;8.338;2023-03-01T07:10:10;12.80;;;7.30;;
10880;SDS011;5493;48.884;8.338;2023-03-01T07:12:37;15.93;;;8.73;;
10880;SDS011;5493;48.884;8.338;2023-03-01T07:15:05;11.63;;;7.10;;
10880;SDS011;5493;48.884;8.338;2023-03-01T07:17:35;13.30;;;7.03;;
10880;SDS011;5493;48.884;8.338;2023-03-01T07:20:01;12.83;;;7.10;;
10880;SDS011;5493;48.884;8.338;2023-03-01T07:22:28;14.00;;;7.10;;
10880;SDS011;5493;48.884;8.338;2023-03-01T07:24:55;12.43;;;6.90;;
10880;SDS011;5493;48.884;8.338;2023-03-01T07:27:21;15.10;;;7.57;;
10880;SDS011;5493;48.884;8.338;2023-03-01T07:29:47;16.23;;;8.70;;
10880;SDS011;5493;48.884;8.338;2023-03-01T07:32:15;14.03;;;8.03;;
10880;SDS011;5493;48.884;8.338;2023-03-01T07:34:42;12.27;;;6.77;;
10880;SDS011;5493;48.884;8.338;2023-03-01T07:37:08;11.23;;;7.27;;
10880;SDS011;5493;48.884;8.338;2023-03-01T07:39:35;15.57;;;8.50;;
10880;SDS011;5493;48.884;8.338;2023-03-01T07:42:01;13.63;;;8.40;;
10880;SDS011;5493;48.884;8.338;2023-03-01T07:44:28;14.97;;;7.83;;
10880;SDS011;5493;48.884;8.338;2023-03-01T07:46:54;14.27;;;7.63;;
10880;SDS011;5493;48.884;8.338;2023-03-01T07:49:24;13.90;;;8.37;;
10880;SDS011;5493;48.884;8.338;2023-03-01T07:51:52;13.03;;;7.83;;
10880;SDS011;5493;48.884;8.338;2023-03-01T07:54:18;15.37;;;8.13;;
10880;SDS011;5493;48.884;8.338;2023-03-01T07:56:45;15.37;;;8.27;;
10880;SDS011;5493;48.884;8.338;2023-03-01T07:59:11;16.40;;;7.93;;
10880;SDS011;5493;48.884;8.338;2023-03-01T08:01:38;15.90;;;8.90;;
10880;SDS011;5493;48.884;8.338;2023-03-01T08:04:04;16.47;;;9.03;;
10880;SDS011;5493;48.884;8.338;2023-03-01T08:06:34;15.87;;;8.43;;
10880;SDS011;5493;48.884;8.338;2023-03-01T08:09:02;13.70;;;8.00;;
10880;SDS011;5493;48.884;8.338;2023-03-01T08:11:28;10.60;;;6.67;;
10880;SDS011;5493;48.884;8.338;2023-03-01T08:13:55;13.37;;;7.20;;
10880;SDS011;5493;48.884;8.338;2023-03-01T08:16:22;16.60;;;8.67;;
10880;SDS011;5493;48.884;8.338;2023-03-01T08:18:49;14.20;;;7.70;;
10880;SDS011;5493;48.884;8.338;2023-03-01T08:21:16;15.43;;;8.57;;
10880;SDS011;5493;48.884;8.338;2023-03-01T08:23:45;13.23;;;7.50;;
10880;SDS011;5493;48.884;8.338;2023-03-01T08:26:12;16.50;;;9.73;;
10880;SDS011;5493;48.884;8.338;2023-03-01T08:28:41;17.50;;;7.73;;
10880;SDS011;5493;48.884;8.338;2023-03-01T08:31:15;15.03;;;8.40;;
10880;SDS011;5493;48.884;8.338;2023-03-01T08:33:43;15.73;;;9.23;;
10880;SDS011;5493;48.884;8.338;2023-03-01T08:36:15;17.87;;;8.73;;
10880;SDS011;5493;48.884;8.338;2023-03-01T08:38:42;13.57;;;8.83;;
10880;SDS011;5493;48.884;8.338;2023-03-01T08:41:10;13.17;;;7.93;;
10880;SDS011;5493;48.884;8.338;2023-03-01T08:43:36;14.43;;;8.60;;
10880;SDS011;5493;48.884;8.338;2023-03-01T08:46:03;15.60;;;9.27;;
10880;SDS011;5493;48.884;8.338;2023-03-01T08:48:30;19.10;;;8.93;;
10880;SDS011;5493;48.884;8.338;2023-03-01T08:50:56;14.70;;;9.00;;
10880;SDS011;5493;48.884;8.338;2023-03-01T08:53:23;15.90;;;8.43;;
10880;SDS011;5493;48.884;8.338;2023-03-01T08:55:49;14.90;;;8.70;;
10880;SDS011;5493;48.884;8.338;2023-03-01T08:58:17;15.97;;;8.57;;
10880;SDS011;5493;48.884;8.338;2023-03-01T09:00:43;16.07;;;9.17;;
10880;SDS011;5493;48.884;8.338;2023-03-01T09:03:10;9.27;;;6.07;;
10880;SDS011;5493;48.884;8.338;2023-03-01T09:05:36;17.63;;;8.90;;
10880;SDS011;5493;48.884;8.338;2023-03-01T09:08:03;17.70;;;8.70;;
10880;SDS011;5493;48.884;8.338;2023-03-01T09:10:29;15.97;;;9.37;;
10880;SDS011;5493;48.884;8.338;2023-03-01T09:12:56;14.93;;;9.73;;
10880;SDS011;5493;48.884;8.338;2023-03-01T09:15:24;20.73;;;10.57;;
10880;SDS011;5493;48.884;8.338;2023-03-01T09:17:51;20.80;;;11.20;;
10880;SDS011;5493;48.884;8.338;2023-03-01T09:20:17;18.10;;;9.23;;
10880;SDS011;5493;48.884;8.338;2023-03-01T09:22:44;13.93;;;8.60;;
10880;SDS011;5493;48.884;8.338;2023-03-01T09:25:10;18.00;;;10.23;;
10880;SDS011;5493;48.884;8.338;2023-03-01T09:27:37;15.10;;;8.60;;
10880;SDS011;5493;48.884;8.338;2023-03-01T09:30:04;15.87;;;9.20;;
10880;SDS011;5493;48.884;8.338;2023-03-01T09:32:33;14.77;;;9.03;;
10880;SDS011;5493;48.884;8.338;2023-03-01T09:34:59;18.37;;;10.40;;
10880;SDS011;5493;48.884;8.338;2023-03-01T09:37:30;17.50;;;9.67;;
10880;SDS011;5493;48.884;8.338;2023-03-01T09:39:57;18.30;;;10.30;;
10880;SDS011;5493;48.884;8.338;2023-03-01T09:42:24;15.67;;;8.97;;
10880;SDS011;5493;48.884;8.338;2023-03-01T09:44:52;14.23;;;9.20;;
10880;SDS011;5493;48.884;8.338;2023-03-01T09:47:24;16.13;;;9.77;;
10880;SDS011;5493;48.884;8.338;2023-03-01T09:49:58;15.83;;;9.77;;
10880;SDS011;5493;48.884;8.338;2023-03-01T09:52:33;14.90;;;9.43;;
10880;SDS011;5493;48.884;8.338;2023-03-01T09:55:05;14.70;;;8.97;;
10880;SDS011;5493;48.884;8.338;2023-03-01T09:57:39;16.03;;;9.10;;
10880;SDS011;5493;48.884;8.338;2023-03-01T10:00:26;14.70;;;9.50;;
10880;SDS011;5493;48.884;8.338;2023-03-01T10:03:01;14.77;;;8.70;;
10880;SDS011;5493;48.884;8.338;2023-03-01T10:05:38;16.33;;;9.53;;
10880;SDS011;5493;48.884;8.338;2023-03-01T10:08:19;19.37;;;10.87;;
10880;SDS011;5493;48.884;8.338;2023-03-01T10:10:54;17.10;;;9.83;;
10880;SDS011;5493;48.884;8.338;2023-03-01T10:13:21;14.43;;;8.97;;
10880;SDS011;5493;48.884;8.338;2023-03-01T10:15:53;16.17;;;9.27;;
10880;SDS011;5493;48.884;8.338;2023-03-01T10:18:23;17.47;;;10.67;;
10880;SDS011;5493;48.884;8.338;2023-03-01T10:20:55;18.37;;;10.40;;
10880;SDS011;5493;48.884;8.338;2023-03-01T10:23:24;15.33;;;10.43;;
10880;SDS011;5493;48.884;8.338;2023-03-01T10:25:56;18.03;;;9.63;;
10880;SDS011;5493;48.884;8.338;2023-03-01T10:28:35;17.97;;;10.20;;
10880;SDS011;5493;48.884;8.338;2023-03-01T10:31:13;18.97;;;11.17;;
10880;SDS011;5493;48.884;8.338;2023-03-01T10:33:44;17.20;;;10.63;;
10880;SDS011;5493;48.884;8.338;2023-03-01T10:36:14;19.60;;;10.07;;
10880;SDS011;5493;48.884;8.338;2023-03-01T10:38:47;15.10;;;9.67;;
10880;SDS011;5493;48.884;8.338;2023-03-01T10:41:17;16.07;;;9.77;;
10880;SDS011;5493;48.884;8.338;2023-03-01T10:43:45;18.70;;;10.97;;
10880;SDS011;5493;48.884;8.338;2023-03-01T10:46:23;18.70;;;10.87;;
10880;SDS011;5493;48.884;8.338;2023-03-01T10:49:05;19.87;;;10.93;;
10880;SDS011;5493;48.884;8.338;2023-03-01T10:51:34;16.77;;;10.30;;
10880;SDS011;5493;48.884;8.338;2023-03-01T10:54:01;18.13;;;10.90;;
10880;SDS011;5493;48.884;8.338;2023-03-01T10:56:30;13.87;;;8.77;;
10880;SDS011;5493;48.884;8.338;2023-03-01T10:59:20;17.90;;;10.83;;
10880;SDS011;5493;48.884;8.338;2023-03-01T11:02:01;16.17;;;10.07;;
10880;SDS011;5493;48.884;8.338;2023-03-01T11:04:29;17.00;;;10.83;;
10880;SDS011;5493;48.884;8.338;2023-03-01T11:07:01;16.93;;;10.43;;
10880;SDS011;5493;48.884;8.338;2023-03-01T11:09:30;16.93;;;10.63;;
10880;SDS011;5493;48.884;8.338;2023-03-01T11:12:03;17.30;;;9.73;;
10880;SDS011;5493;48.884;8.338;2023-03-01T11:14:32;17.90;;;10.97;;
10880;SDS011;5493;48.884;8.338;2023-03-01T11:17:02;20.67;;;12.40;;
10880;SDS011;5493;48.884;8.338;2023-03-01T11:19:31;18.57;;;11.13;;
10880;SDS011;5493;48.884;8.338;2023-03-01T11:22:01;15.77;;;11.27;;
10880;SDS011;5493;48.884;8.338;2023-03-01T11:24:31;17.37;;;11.67;;
10880;SDS011;5493;48.884;8.338;2023-03-01T11:27:14;19.63;;;12.33;;
10880;SDS011;5493;48.884;8.338;2023-03-01T11:29:44;17.20;;;11.57;;
10880;SDS011;5493;48.884;8.338;2023-03-01T11:32:16;16.17;;;11.77;;
10880;SDS011;5493;48.884;8.338;2023-03-01T11:34:47;17.90;;;12.07;;
10880;SDS011;5493;48.884;8.338;2023-03-01T11:37:22;13.90;;;9.73;;
10880;SDS011;5493;48.884;8.338;2023-03-01T11:39:59;15.60;;;11.30;;
10880;SDS011;5493;48.884;8.338;2023-03-01T11:42:40;17.07;;;12.10;;
10880;SDS011;5493;48.884;8.338;2023-03-01T11:45:12;19.23;;;12.33;;
10880;SDS011;5493;48.884;8.338;2023-03-01T11:50:40;15.83;;;11.97;;
10880;SDS011;5493;48.884;8.338;2023-03-01T11:56:14;16.90;;;11.63;;
10880;SDS011;5493;48.884;8.338;2023-03-01T11:59:02;16.83;;;12.07;;
10880;SDS011;5493;48.884;8.338;2023-03-01T12:01:49;15.70;;;12.00;;
10880;SDS011;5493;48.884;8.338;2023-03-01T12:04:47;18.20;;;12.27;;
10880;SDS011;5493;48.884;8.338;2023-03-01T12:07:29;17.20;;;12.17;;
10880;SDS011;5493;48.884;8.338;2023-03-01T12:10:15;17.17;;;12.17;;
10880;SDS011;5493;48.884;8.338;2023-03-01T12:12:52;18.23;;;12.40;;
10880;SDS011;5493;48.884;8.338;2023-03-01T12:18:36;16.60;;;12.00;;
10880;SDS011;5493;48.884;8.338;2023-03-01T12:21:18;15.20;;;11.33;;
10880;SDS011;5493;48.884;8.338;2023-03-01T12:24:03;16.47;;;12.60;;
10880;SDS011;5493;48.884;8.338;2023-03-01T12:26:43;16.73;;;11.17;;
10880;SDS011;5493;48.884;8.338;2023-03-01T12:29:23;15.90;;;11.90;;
10880;SDS011;5493;48.884;8.338;2023-03-01T12:31:59;14.70;;;11.67;;
10880;SDS011;5493;48.884;8.338;2023-03-01T12:34:53;16.63;;;11.53;;
10880;SDS011;5493;48.884;8.338;2023-03-01T12:37:29;15.37;;;10.83;;
10880;SDS011;5493;48.884;8.338;2023-03-01T12:40:10;20.03;;;11.50;;
10880;SDS011;5493;48.884;8.338;2023-03-01T12:42:51;19.10;;;12.20;;
10880;SDS011;5493;48.884;8.338;2023-03-01T12:45:40;16.33;;;11.23;;
10880;SDS011;5493;48.884;8.338;2023-03-01T12:48:18;15.20;;;11.17;;
10880;SDS011;5493;48.884;8.338;2023-03-01T12:50:54;16.67;;;11.93;;
10880;SDS011;5493;48.884;8.338;2023-03-01T12:53:26;14.90;;;11.83;;
10880;SDS011;5493;48.884;8.338;2023-03-01T12:55:54;18.13;;;12.50;;
10880;SDS011;5493;48.884;8.338;2023-03-01T12:58:29;16.60;;;12.70;;
10880;SDS011;5493;48.884;8.338;2023-03-01T13:01:08;17.67;;;11.70;;
10880;SDS011;5493;48.884;8.338;2023-03-01T13:03:48;18.30;;;11.67;;
10880;SDS011;5493;48.884;8.338;2023-03-01T13:06:27;16.10;;;11.50;;
10880;SDS011;5493;48.884;8.338;2023-03-01T13:09:04;15.73;;;11.23;;
10880;SDS011;5493;48.884;8.338;2023-03-01T13:11:41;15.23;;;11.23;;
10880;SDS011;5493;48.884;8.338;2023-03-01T13:19:59;16.73;;;11.27;;
10880;SDS011;5493;48.884;8.338;2023-03-01T13:22:26;17.23;;;11.27;;
10880;SDS011;5493;48.884;8.338;2023-03-01T13:25:10;17.63;;;11.70;;
10880;SDS011;5493;48.884;8.338;2023-03-01T13:27:40;18.37;;;11.40;;
10880;SDS011;5493;48.884;8.338;2023-03-01T13:30:38;18.63;;;12.70;;
10880;SDS011;5493;48.884;8.338;2023-03-01T13:36:07;15.53;;;10.67;;
10880;SDS011;5493;48.884;8.338;2023-03-01T13:38:36;16.20;;;11.43;;
10880;SDS011;5493;48.884;8.338;2023-03-01T13:41:04;17.27;;;11.30;;
10880;SDS011;5493;48.884;8.338;2023-03-01T13:43:32;17.30;;;11.93;;
10880;SDS011;5493;48.884;8.338;2023-03-01T13:46:03;17.03;;;11.47;;
10880;SDS011;5493;48.884;8.338;2023-03-01T13:48:36;18.10;;;12.03;;
10880;SDS011;5493;48.884;8.338;2023-03-01T13:51:04;19.73;;;12.83;;
10880;SDS011;5493;48.884;8.338;2023-03-01T13:53:35;18.50;;;12.10;;
10880;SDS011;5493;48.884;8.338;2023-03-01T13:56:07;18.00;;;12.10;;
10880;SDS011;5493;48.884;8.338;2023-03-01T13:58:44;19.60;;;12.13;;
10880;SDS011;5493;48.884;8.338;2023-03-01T14:01:20;17.50;;;12.10;;
10880;SDS011;5493;48.884;8.338;2023-03-01T14:03:49;16.57;;;12.30;;
10880;SDS011;5493;48.884;8.338;2023-03-01T14:06:16;17.27;;;10.43;;
10880;SDS011;5493;48.884;8.338;2023-03-01T14:08:46;16.53;;;9.87;;
10880;SDS011;5493;48.884;8.338;2023-03-01T14:11:26;18.77;;;11.10;;
10880;SDS011;5493;48.884;8.338;2023-03-01T14:17:18;16.63;;;11.83;;
10880;SDS011;5493;48.884;8.338;2023-03-01T14:20:07;17.90;;;12.43;;
10880;SDS011;5493;48.884;8.338;2023-03-01T14:22:37;16.50;;;10.57;;
10880;SDS011;5493;48.884;8.338;2023-03-01T14:25:16;15.43;;;9.87;;
10880;SDS011;5493;48.884;8.338;2023-03-01T14:27:50;17.27;;;11.37;;
10880;SDS011;5493;48.884;8.338;2023-03-01T14:30:21;15.70;;;9.93;;
10880;SDS011;5493;48.884;8.338;2023-03-01T14:32:55;15.47;;;9.97;;
10880;SDS011;5493;48.884;8.338;2023-03-01T14:35:24;16.40;;;10.47;;
10880;SDS011;5493;48.884;8.338;2023-03-01T14:37:52;16.20;;;11.40;;
10880;SDS011;5493;48.884;8.338;2023-03-01T14:40:23;18.00;;;11.57;;
10880;SDS011;5493;48.884;8.338;2023-03-01T14:42:52;16.30;;;11.43;;
10880;SDS011;5493;48.884;8.338;2023-03-01T14:45:20;15.40;;;10.07;;
10880;SDS011;5493;48.884;8.338;2023-03-01T14:47:46;13.40;;;10.87;;
10880;SDS011;5493;48.884;8.338;2023-03-01T14:50:18;20.27;;;11.17;;
10880;SDS011;5493;48.884;8.338;2023-03-01T14:52:48;17.17;;;11.20;;
10880;SDS011;5493;48.884;8.338;2023-03-01T14:55:18;18.70;;;12.47;;
10880;SDS011;5493;48.884;8.338;2023-03-01T14:57:47;17.80;;;11.10;;
10880;SDS011;5493;48.884;8.338;2023-03-01T15:00:16;17.23;;;10.87;;
10880;SDS011;5493;48.884;8.338;2023-03-01T15:02:46;17.53;;;10.20;;
10880;SDS011;5493;48.884;8.338;2023-03-01T15:05:14;15.17;;;10.87;;
10880;SDS011;5493;48.884;8.338;2023-03-01T15:07:44;18.57;;;11.63;;
10880;SDS011;5493;48.884;8.338;2023-03-01T15:10:16;15.50;;;10.90;;
10880;SDS011;5493;48.884;8.338;2023-03-01T15:12:45;18.23;;;10.83;;
10880;SDS011;5493;48.884;8.338;2023-03-01T15:15:32;16.07;;;10.50;;
10880;SDS011;5493;48.884;8.338;2023-03-01T15:18:02;17.07;;;10.57;;
10880;SDS011;5493;48.884;8.338;2023-03-01T15:20:32;16.40;;;10.50;;
10880;SDS011;5493;48.884;8.338;2023-03-01T15:23:01;16.77;;;11.13;;
10880;SDS011;5493;48.884;8.338;2023-03-01T15:25:29;14.87;;;10.13;;